Etusivu
METAR-TAF:

METAR-TAF

Lentoasemat :

Oradea, Romania

Leveyspiiri: 47-03N, Pituuspiiri: 021-56E, korkeus merenpinnasta: 135 m

Tämänhetkinen sää

Tämä raportti tehtiin 20 minuuttia sitten, kello 22.00 UTC
Tuuli 8 kn idästä
Lämpötila 27°C
Kosteus 54%
Ilmanpaine 1011 hPa
Näkyvyys 10 km tai enemmän

METAR: LROD 132200Z AUTO 10008KT 9999 FEW110/// 27/17 Q1011

Aika: 01:20 (22:20 UTC)

Sääennuste

Tämä raportti tehtiin 2 tuntia ja 20 minuuttia sitten, kello 20.00 UTC
Ennuste voimassa 13. päivästä klo 21 UTC - 14. päivään klo 06 UTC
Tuuli 4 kn eri suunnista
Näkyvyys 10 km tai enemmän
ei pilviä alle 1500 m:ssä eikä cumulonimbus-pilviä

TAF: LROD 132000Z 1321/1406 VRB04KT CAVOK

Säähavainnot ja -ennusteet yli 4000 lentoasemalta (METAR- ja TAF-raportit).

Käytössä olevat sääasemat on merkitty karttaan keltaisilla ja punaisilla pisteillä.

Aseta hiiri pisteen päälle nähdäksesi sääaseman nimen.

Klikkaa sitten nähdäksesi säähavainnot ja -ennusteet.

Kartan vaihtaminen: klikkaa mustalla rastilla varustettuja vihreitä pisteitä, niin voit zoomata sisään; viivalla varustettua vihreää pistettä, niin voit zoomata ulos tai vihreitä nuolia, niin pääset viereisille kartoille.


METAR-TAF: